Time;durP1;ratioP1;P1;durP2;ratioP2;P2;SDS_P1;SDS_P2;PMS_P1;PMS_P2;Temp;Humidity;BMP_temperature;BMP_pressure;BME280_temperature;BME280_humidity;BME280_pressure;Samples;Min_cycle;Max_cycle;Signal;HPM_P1;HPM_P2
2022/12/13 00:01:23;;;;;;;;;39.25;31.50;;;;;0.47;61.66;100225.59;5016233;28;45325;-71
2022/12/13 00:03:52;;;;;;;;;37.50;35.00;;;;;0.40;61.52;100184.22;5016321;28;45285;-70
2022/12/13 00:06:18;;;;;;;;;48.50;31.25;;;;;0.28;60.95;100173.56;5016338;28;45556;-71
2022/12/13 00:08:43;;;;;;;;;35.75;30.25;;;;;0.75;60.92;100261.38;5016251;28;45413;-70
2022/12/13 00:11:12;;;;;;;;;37.00;30.50;;;;;-1.20;61.09;99948.28;4998459;28;45326;-71
2022/12/13 00:13:39;;;;;;;;;46.25;36.50;;;;;0.64;61.23;100248.13;5000395;28;45620;-72
2022/12/13 00:16:07;;;;;;;;;40.75;31.50;;;;;-0.25;61.21;100087.09;5019589;28;45497;-72
2022/12/13 00:18:32;;;;;;;;;42.00;32.75;;;;;0.24;60.92;100177.31;5019149;28;46747;-72
2022/12/13 00:20:57;;;;;;;;;32.50;28.25;;;;;0.43;60.91;100204.97;5019534;28;45489;-71
2022/12/13 00:23:23;;;;;;;;;45.25;35.00;;;;;0.18;61.30;100148.91;5019443;28;45547;-70
2022/12/13 00:25:48;;;;;;;;;41.25;31.50;;;;;-0.36;61.14;100046.81;5019990;28;45296;-70
2022/12/13 00:28:15;;;;;;;;;42.00;34.25;;;;;0.62;60.82;100213.38;5001508;28;47691;-72
2022/12/13 00:30:40;;;;;;;;;37.50;31.75;;;;;0.19;60.69;100150.59;5019339;28;45407;-71
2022/12/13 00:33:06;;;;;;;;;37.00;33.00;;;;;0.17;60.43;100147.22;5001436;28;45480;-71
2022/12/13 00:35:32;;;;;;;;;34.75;30.50;;;;;0.28;60.66;100168.34;5019657;28;45443;-71
2022/12/13 00:37:58;;;;;;;;;39.50;32.50;;;;;0.54;61.19;100234.75;5019048;28;45551;-69
2022/12/13 00:40:23;;;;;;;;;42.25;32.75;;;;;0.47;60.89;100217.75;5019042;28;45231;-69
2022/12/13 00:42:48;;;;;;;;;41.00;32.50;;;;;0.51;60.92;100232.31;5019279;28;45825;-70
2022/12/13 00:45:14;;;;;;;;;37.75;31.75;;;;;0.35;60.92;100204.56;5019540;28;45278;-71
2022/12/13 00:47:39;;;;;;;;;38.25;30.00;;;;;0.49;60.40;100228.97;5019083;28;46577;-71
2022/12/13 00:50:05;;;;;;;;;25.00;19.50;;;;;0.40;60.53;100207.75;5000721;28;60014;-70
2022/12/13 00:52:32;;;;;;;;;36.25;28.75;;;;;0.18;60.37;100177.66;5018991;28;45573;-71
2022/12/13 00:54:57;;;;;;;;;35.50;31.25;;;;;-0.47;60.83;100058.81;5019466;28;45586;-71
2022/12/13 00:57:22;;;;;;;;;37.50;31.00;;;;;0.40;60.64;100203.38;5018607;28;48885;-70
2022/12/13 00:59:49;;;;;;;;;24.75;22.00;;;;;-0.18;60.27;100104.94;5001240;28;45373;-72
2022/12/13 01:02:14;;;;;;;;;35.50;31.00;;;;;0.09;60.25;100154.72;5019207;28;45262;-71
2022/12/13 01:04:40;;;;;;;;;37.25;30.25;;;;;-0.37;60.50;100084.31;5019029;28;45519;-71
2022/12/13 01:07:05;;;;;;;;;29.00;25.25;;;;;0.33;60.58;100181.13;5018648;28;45501;-69
2022/12/13 01:09:32;;;;;;;;;44.25;37.00;;;;;-0.61;60.11;100041.34;5019101;28;45446;-69
2022/12/13 01:12:00;;;;;;;;;41.75;35.75;;;;;0.30;60.42;100207.47;5020150;28;45589;-70
2022/12/13 01:14:26;;;;;;;;;25.75;23.00;;;;;0.18;60.67;100205.56;4997619;28;45353;-71
2022/12/13 01:16:55;;;;;;;;;29.00;25.25;;;;;0.26;60.72;100201.59;4998606;28;46660;-69
2022/12/13 01:19:25;;;;;;;;;34.50;26.75;;;;;0.40;60.15;100220.81;4998658;28;45311;-69
2022/12/13 01:21:55;;;;;;;;;37.75;31.50;;;;;0.44;60.34;100232.81;4998620;28;45380;-69
2022/12/13 01:24:23;;;;;;;;;37.50;29.00;;;;;0.40;60.40;100213.84;4997660;28;45289;-69
2022/12/13 01:26:49;;;;;;;;;44.50;35.25;;;;;0.28;60.21;100219.81;4998621;28;46374;-71
2022/12/13 01:29:15;;;;;;;;;29.00;26.25;;;;;0.24;60.53;100219.16;5013754;28;45989;-70
2022/12/13 01:31:40;;;;;;;;;35.25;31.25;;;;;0.20;60.82;100201.97;4998747;28;45249;-70
2022/12/13 01:34:11;;;;;;;;;34.75;29.00;;;;;0.21;60.24;100197.59;4998850;28;45573;-69
2022/12/13 01:36:39;;;;;;;;;34.00;28.00;;;;;-0.03;60.10;100158.03;4998515;28;46827;-72
2022/12/13 01:39:06;;;;;;;;;33.50;29.25;;;;;0.29;60.24;100204.00;4998456;28;45265;-69
2022/12/13 01:41:32;;;;;;;;;36.25;28.25;;;;;0.25;59.43;100199.91;4998995;28;45542;-70
2022/12/13 01:44:01;;;;;;;;;29.75;26.00;;;;;-0.33;59.25;100091.03;4999261;28;45539;-71
2022/12/13 01:46:31;;;;;;;;;40.50;33.50;;;;;0.24;59.51;100228.75;4999163;28;45695;-71
2022/12/13 01:49:14;;;;;;;;;35.25;28.75;;;;;0.13;59.86;100192.78;4999238;28;45420;-71
2022/12/13 01:51:46;;;;;;;;;21.50;20.00;;;;;-0.23;59.41;100124.41;4998231;28;45210;-70
2022/12/13 01:54:15;;;;;;;;;32.25;28.25;;;;;-0.37;59.68;100106.97;5013601;28;45551;-68
2022/12/13 01:56:46;;;;;;;;;30.25;26.75;;;;;-0.10;59.28;100156.72;4997918;28;46552;-70
2022/12/13 01:59:14;;;;;;;;;30.33;26.00;;;;;-0.99;59.78;100005.31;4998076;28;45358;-71
2022/12/13 02:01:40;;;;;;;;;35.00;25.33;;;;;0.34;59.37;100202.91;4998045;28;45466;-69
2022/12/13 02:04:07;;;;;;;;;23.50;21.00;;;;;-0.50;58.41;100085.09;4996961;28;45672;-71
2022/12/13 02:06:35;;;;;;;;;35.25;28.50;;;;;0.16;58.86;100220.50;5013203;28;47509;-72
2022/12/13 02:09:04;;;;;;;;;25.50;22.00;;;;;0.18;59.01;100208.19;4998344;28;45462;-70
2022/12/13 02:11:31;;;;;;;;;30.75;25.50;;;;;-0.13;58.78;100160.38;5013106;28;45291;-71
2022/12/13 02:13:56;;;;;;;;;26.75;25.75;;;;;0.24;58.88;100224.38;4998791;28;45211;-71
2022/12/13 02:16:34;;;;;;;;;41.00;32.25;;;;;0.10;58.24;100192.13;5016974;28;46590;-70
2022/12/13 02:19:25;;;;;;;;;26.00;26.00;;;;;0.12;58.50;100219.03;5017944;28;45480;-70
2022/12/13 02:22:20;;;;;;;;;27.00;22.67;;;;;0.28;58.99;100219.81;5017986;28;45325;-71
2022/12/13 02:24:57;;;;;;;;;29.25;22.00;;;;;0.32;58.54;100210.00;5017664;28;45475;-70
2022/12/13 02:27:41;;;;;;;;;30.50;23.25;;;;;-0.26;58.14;100129.81;5016093;28;46589;-71
2022/12/13 02:30:28;;;;;;;;;25.25;18.50;;;;;0.27;58.16;100207.66;5017494;28;45270;-70
2022/12/13 02:33:02;;;;;;;;;29.00;22.67;;;;;-0.62;58.46;100055.31;5016430;28;45358;-69
2022/12/13 02:35:37;;;;;;;;;25.33;25.00;;;;;0.33;58.19;100219.50;5017347;28;45342;-72
2022/12/13 02:38:13;;;;;;;;;28.00;22.33;;;;;0.17;58.36;100211.75;5017255;28;45310;-70
2022/12/13 02:41:03;;;;;;;;;36.00;29.00;;;;;0.15;57.65;100237.13;5017227;28;45343;-69
2022/12/13 02:43:35;;;;;;;;;36.00;26.25;;;;;-0.28;58.14;100149.97;5017342;28;45511;-71
2022/12/13 02:46:04;;;;;;;;;28.75;21.50;;;;;-0.12;58.39;100195.19;5017570;28;45472;-68
2022/12/13 02:48:35;;;;;;;;;32.75;30.25;;;;;-0.02;58.65;100211.97;5017201;28;45987;-70
2022/12/13 02:51:03;;;;;;;;;26.00;22.00;;;;;-0.41;58.66;100140.22;5017035;28;45443;-71
2022/12/13 02:53:31;;;;;;;;;31.75;27.25;;;;;-0.02;57.85;100204.13;5015960;28;45260;-69
2022/12/13 02:55:56;;;;;;;;;32.00;25.67;;;;;0.01;58.51;100204.00;5017141;28;45452;-70
2022/12/13 02:58:28;;;;;;;;;26.50;22.75;;;;;0.05;57.97;100197.63;5017007;28;45454;-70
2022/12/13 03:01:22;;;;;;;;;27.33;26.00;;;;;0.11;57.84;100186.81;5017336;28;45399;-70
2022/12/13 03:03:57;;;;;;;;;30.00;22.75;;;;;0.17;57.58;100190.81;5010042;28;45223;-70
2022/12/13 03:06:45;;;;;;;;;32.25;28.50;;;;;0.11;57.18;100185.97;5019710;28;45329;-70
2022/12/13 03:09:23;;;;;;;;;23.50;19.50;;;;;0.09;57.81;100180.84;5017406;28;46159;-71
2022/12/13 03:14:49;;;;;;;;;20.67;19.00;;;;;-0.08;57.53;100155.72;5016687;28;45519;-73
2022/12/13 03:17:19;;;;;;;;;26.67;20.00;;;;;0.25;57.11;100178.16;5017332;28;45222;-72
2022/12/13 03:19:44;;;;;;;;;32.00;24.75;;;;;-0.61;56.98;100036.13;5016751;28;45642;-70
2022/12/13 03:22:10;;;;;;;;;21.75;21.75;;;;;-0.28;57.17;100090.75;4999050;28;45436;-70
2022/12/13 03:24:35;;;;;;;;;25.75;19.50;;;;;0.22;56.76;100168.72;5017217;28;45476;-69
2022/12/13 03:27:01;;;;;;;;;31.50;27.75;;;;;0.04;56.72;100141.09;5017129;28;45469;-70
2022/12/13 03:29:26;;;;;;;;;24.00;22.25;;;;;0.26;56.67;100183.28;5016715;28;46707;-69
2022/12/13 03:31:53;;;;;;;;;26.75;26.25;;;;;0.20;56.50;100170.59;5016775;28;45369;-70
2022/12/13 03:34:19;;;;;;;;;25.50;25.25;;;;;0.15;56.75;100161.31;4998140;28;45278;-71
2022/12/13 03:36:44;;;;;;;;;29.25;24.25;;;;;-0.62;56.57;100040.50;5016702;28;45533;-71
2022/12/13 03:39:09;;;;;;;;;29.50;25.00;;;;;-0.13;56.76;100115.94;5016554;28;46539;-72
2022/12/13 03:41:35;;;;;;;;;30.00;26.33;;;;;0.08;56.53;100155.63;5015263;28;45348;-71
2022/12/13 03:44:06;;;;;;;;;28.00;23.50;;;;;0.01;57.15;100156.94;5016576;28;45254;-70
2022/12/13 03:46:32;;;;;;;;;23.67;21.33;;;;;0.06;57.01;100154.91;5015435;28;45654;-70
2022/12/13 03:48:57;;;;;;;;;31.00;24.33;;;;;-0.38;56.64;100066.13;5018929;28;45750;-69
2022/12/13 03:51:23;;;;;;;;;40.25;29.75;;;;;-0.93;56.71;99978.84;5019591;28;45436;-69
2022/12/13 03:53:48;;;;;;;;;27.33;23.67;;;;;0.21;57.17;100179.28;5019988;28;45303;-70
2022/12/13 03:56:14;;;;;;;;;33.25;26.25;;;;;-0.23;56.70;100093.06;5020012;28;45301;-69
2022/12/13 03:58:41;;;;;;;;;32.50;30.00;;;;;0.21;56.23;100177.50;5002061;28;48367;-70
2022/12/13 04:01:09;;;;;;;;;31.75;24.50;;;;;0.21;56.85;100174.06;5019703;28;45221;-70
2022/12/13 04:03:35;;;;;;;;;34.00;26.25;;;;;0.08;56.62;100166.09;5019703;28;45419;-68
2022/12/13 04:06:01;;;;;;;;;27.75;22.75;;;;;0.01;56.15;100143.88;5020118;28;45343;-69
2022/12/13 04:08:26;;;;;;;;;26.25;23.00;;;;;0.25;56.60;100176.38;5020932;28;46683;-69
2022/12/13 04:10:52;;;;;;;;;26.00;25.00;;;;;0.01;56.52;100143.88;5001900;28;45543;-70
2022/12/13 04:13:32;;;;;;;;;25.75;23.25;;;;;0.21;55.73;100161.81;5001864;28;45386;-70
2022/12/13 04:15:58;;;;;;;;;25.33;17.67;;;;;0.32;56.19;100171.63;5019789;28;45250;-71
2022/12/13 04:18:24;;;;;;;;;28.00;25.25;;;;;0.14;56.02;100164.88;5019906;28;46064;-68
2022/12/13 04:20:49;;;;;;;;;32.25;29.50;;;;;0.11;56.30;100165.91;5018436;28;46325;-70
2022/12/13 04:23:15;;;;;;;;;25.75;17.50;;;;;0.06;56.79;100175.81;5019699;28;45391;-70
2022/12/13 04:25:42;;;;;;;;;28.75;22.75;;;;;0.03;56.86;100147.25;5019491;28;45298;-71
2022/12/13 04:28:07;;;;;;;;;30.75;25.75;;;;;0.05;56.53;100158.44;5001474;28;47647;-70
2022/12/13 04:30:34;;;;;;;;;29.00;27.25;;;;;0.03;56.67;100162.09;5019229;28;45334;-69
2022/12/13 04:32:59;;;;;;;;;35.25;25.50;;;;;-0.47;57.16;100070.09;5019382;28;45249;-71
2022/12/13 04:35:25;;;;;;;;;32.00;30.00;;;;;-0.12;56.89;100145.53;5020322;28;45463;-69
2022/12/13 04:37:51;;;;;;;;;39.75;32.00;;;;;-0.05;56.82;100149.44;5019583;28;46624;-68
2022/12/13 04:40:16;;;;;;;;;32.25;30.00;;;;;-0.13;56.95;100125.56;5019150;28;45227;-70
2022/12/13 04:42:41;;;;;;;;;36.00;31.75;;;;;-0.07;57.04;100123.41;5019348;28;45363;-70
2022/12/13 04:45:08;;;;;;;;;34.50;27.50;;;;;-0.31;56.61;100102.22;5019452;28;45251;-70
2022/12/13 04:47:34;;;;;;;;;31.75;25.75;;;;;-0.07;57.31;100143.47;5019261;28;46578;-70
2022/12/13 04:49:59;;;;;;;;;35.00;29.25;;;;;-0.13;56.74;100146.47;5019281;28;45447;-70
2022/12/13 04:52:24;;;;;;;;;29.75;25.75;;;;;-0.14;57.25;100137.78;5019255;28;45384;-70
2022/12/13 04:54:50;;;;;;;;;34.25;25.50;;;;;-0.05;57.21;100149.44;5019280;28;45497;-71
2022/12/13 04:57:16;;;;;;;;;28.25;21.25;;;;;0.05;57.36;100134.91;5019929;28;45316;-69
2022/12/13 04:59:41;;;;;;;;;28.75;26.00;;;;;-0.44;56.96;100051.63;5020424;28;45534;-71
2022/12/13 05:02:07;;;;;;;;;30.75;26.50;;;;;-0.25;56.77;100110.59;5018793;28;45544;-69
2022/12/13 05:04:33;;;;;;;;;26.75;26.25;;;;;-0.03;57.03;100147.59;5019123;28;45293;-70
2022/12/13 05:06:59;;;;;;;;;36.50;34.50;;;;;-0.70;57.17;100034.06;5018714;28;45869;-69
2022/12/13 05:09:25;;;;;;;;;35.25;29.75;;;;;-0.88;57.08;100011.66;5018641;28;45335;-70
2022/12/13 05:11:50;;;;;;;;;35.25;30.25;;;;;-0.92;57.08;100022.28;5018737;28;45236;-69
2022/12/13 05:14:15;;;;;;;;;27.75;27.00;;;;;-0.14;57.09;100119.50;5017906;28;47999;-70
2022/12/13 05:16:41;;;;;;;;;25.75;25.25;;;;;-1.17;57.51;99950.75;5017080;28;48624;-70
2022/12/13 05:19:06;;;;;;;;;36.25;21.25;;;;;-0.98;56.60;99973.06;5018395;28;45333;-70
2022/12/13 05:21:33;;;;;;;;;33.75;23.50;;;;;0.03;56.59;100135.94;5000823;28;45346;-70
2022/12/13 05:24:00;;;;;;;;;36.25;29.50;;;;;0.06;57.16;100127.91;5018361;28;45600;-70
2022/12/13 05:26:26;;;;;;;;;35.75;31.50;;;;;-0.18;56.79;100135.47;5016933;28;48401;-70
2022/12/13 05:28:51;;;;;;;;;31.00;29.00;;;;;-0.01;56.83;100132.66;5000329;28;45526;-70
2022/12/13 05:31:16;;;;;;;;;29.00;26.00;;;;;-0.49;57.15;100051.06;5018338;28;45423;-71
2022/12/13 05:33:42;;;;;;;;;34.00;31.00;;;;;-0.08;57.18;100123.50;5000706;28;45607;-70
2022/12/13 05:36:08;;;;;;;;;31.50;26.00;;;;;-0.18;56.86;100091.03;5017853;28;46111;-71
2022/12/13 05:38:33;;;;;;;;;40.75;33.25;;;;;-0.12;57.01;100124.63;5018209;28;45478;-71
2022/12/13 05:40:59;;;;;;;;;33.25;28.50;;;;;-0.79;57.74;100029.41;5018006;28;45266;-70
2022/12/13 05:43:25;;;;;;;;;32.25;25.00;;;;;-0.65;57.60;100055.50;5018639;28;45286;-70
2022/12/13 05:45:50;;;;;;;;;22.25;22.25;;;;;-0.06;57.37;100140.78;5000082;28;47312;-70
2022/12/13 05:48:15;;;;;;;;;36.50;32.75;;;;;-0.95;57.69;100000.75;5018143;28;45325;-70
2022/12/13 05:50:41;;;;;;;;;40.75;31.50;;;;;-1.18;56.94;99967.34;5018322;28;45646;-70
2022/12/13 05:53:07;;;;;;;;;30.25;27.50;;;;;-0.20;57.03;100166.03;5018410;28;45468;-71
2022/12/13 05:55:32;;;;;;;;;35.25;29.50;;;;;-0.05;57.13;100149.44;5017756;28;46957;-70
2022/12/13 05:57:59;;;;;;;;;35.75;30.75;;;;;-0.06;56.77;100138.16;5017780;28;45368;-71
2022/12/13 06:00:25;;;;;;;;;30.75;30.25;;;;;-0.64;56.97;100047.59;5018134;28;45456;-71
2022/12/13 06:02:50;;;;;;;;;38.25;30.50;;;;;0.00;57.03;100163.09;5018030;28;45414;-71
2022/12/13 06:05:16;;;;;;;;;32.00;25.75;;;;;-0.57;56.87;100042.88;5017607;28;45511;-69
2022/12/13 06:07:41;;;;;;;;;32.00;26.00;;;;;0.11;57.15;100159.84;5017797;28;45305;-71
2022/12/13 06:10:07;;;;;;;;;30.75;24.25;;;;;0.16;57.10;100171.69;5017536;28;45417;-72
2022/12/13 06:12:36;;;;;;;;;40.25;28.25;;;;;0.21;56.32;100181.91;5017818;28;45531;-71
2022/12/13 06:15:02;;;;;;;;;36.75;29.25;;;;;0.12;56.71;100177.19;5017204;28;46732;-69
2022/12/13 06:17:32;;;;;;;;;25.50;24.00;;;;;0.03;56.60;100181.22;5016023;28;45352;-71
2022/12/13 06:19:57;;;;;;;;;34.75;29.00;;;;;0.05;56.45;100181.13;5017897;28;45620;-70
2022/12/13 06:22:22;;;;;;;;;42.25;31.25;;;;;-0.79;57.18;100045.06;5016088;28;45609;-71
2022/12/13 06:24:48;;;;;;;;;37.25;31.00;;;;;-0.13;56.68;100156.91;5017109;28;46298;-71
2022/12/13 06:27:13;;;;;;;;;26.75;24.50;;;;;-0.28;56.82;100129.06;5016073;28;45269;-70
2022/12/13 06:29:38;;;;;;;;;39.50;31.50;;;;;-0.30;56.88;100116.13;5017510;28;45451;-70
2022/12/13 06:32:04;;;;;;;;;29.00;24.00;;;;;-0.16;57.08;100164.94;5017045;28;51839;-70
2022/12/13 06:34:32;;;;;;;;;27.25;26.25;;;;;-0.06;56.92;100210.47;5017167;28;46290;-72
2022/12/13 06:36:58;;;;;;;;;41.00;37.00;;;;;-0.53;56.92;100100.97;5017126;28;45382;-71
2022/12/13 06:39:23;;;;;;;;;42.75;32.25;;;;;-0.42;56.81;100122.88;5016988;28;45366;-71
2022/12/13 06:41:49;;;;;;;;;37.75;32.50;;;;;-0.07;57.25;100161.78;5017395;28;45244;-70
2022/12/13 06:44:14;;;;;;;;;30.25;27.00;;;;;-0.05;57.19;100154.69;5016890;28;45552;-70
2022/12/13 06:46:40;;;;;;;;;33.75;29.50;;;;;0.12;57.04;100175.44;4999123;28;45798;-68
2022/12/13 06:49:05;;;;;;;;;33.50;27.00;;;;;0.01;56.79;100143.03;5017398;28;45327;-69
2022/12/13 06:51:33;;;;;;;;;36.00;29.50;;;;;0.19;56.83;100158.44;5018039;28;45380;-67
2022/12/13 06:53:58;;;;;;;;;41.00;33.33;;;;;0.24;56.90;100169.47;5019399;28;46118;-70
2022/12/13 06:56:23;;;;;;;;;36.00;30.67;;;;;-0.51;56.79;100050.31;5018733;28;45526;-70
2022/12/13 06:58:49;;;;;;;;;18.25;13.50;;;;;0.12;57.04;100159.75;4999185;28;45365;-70
2022/12/13 07:01:16;;;;;;;;;37.00;31.00;;;;;0.14;57.20;100154.44;5016083;28;45367;-71
2022/12/13 07:03:42;;;;;;;;;36.50;30.00;;;;;-0.38;56.63;100064.34;5016713;28;49242;-69
2022/12/13 07:06:13;;;;;;;;;30.50;23.25;;;;;-0.04;56.94;100143.28;5016722;28;45303;-70
2022/12/13 07:08:39;;;;;;;;;39.50;29.25;;;;;0.04;56.62;100151.53;5015943;28;45479;-70
2022/12/13 07:11:05;;;;;;;;;32.75;26.50;;;;;0.00;57.37;100147.44;5016958;28;45482;-70
2022/12/13 07:13:32;;;;;;;;;34.50;32.25;;;;;0.04;57.64;100155.91;5016432;28;46420;-69
2022/12/13 07:15:58;;;;;;;;;46.25;33.75;;;;;-0.14;56.96;100116.06;5016014;28;45248;-70
2022/12/13 07:18:23;;;;;;;;;40.75;31.25;;;;;-1.27;57.90;99940.84;5015886;28;45340;-70
2022/12/13 07:20:49;;;;;;;;;43.50;34.75;;;;;-0.35;57.60;100105.94;4999645;28;45504;-71
2022/12/13 07:23:14;;;;;;;;;32.25;27.50;;;;;-0.08;57.45;100165.31;5019370;28;46000;-71
2022/12/13 07:25:39;;;;;;;;;41.25;36.50;;;;;-0.47;57.21;100075.31;5021519;28;45444;-71
2022/12/13 07:28:08;;;;;;;;;46.75;36.50;;;;;-0.06;57.36;100139.94;5002923;28;45882;-70
2022/12/13 07:30:36;;;;;;;;;37.25;32.75;;;;;-0.59;57.55;100068.22;5020675;28;45603;-70
2022/12/13 07:33:02;;;;;;;;;32.25;31.00;;;;;-0.50;57.05;100079.88;5018667;28;47409;-71
2022/12/13 07:35:28;;;;;;;;;39.25;28.50;;;;;-0.40;57.40;100133.22;5001028;28;45396;-70
2022/12/13 07:37:54;;;;;;;;;29.75;26.50;;;;;-0.07;57.28;100180.06;5020117;28;45340;-69
2022/12/13 07:40:19;;;;;;;;;44.00;38.00;;;;;-0.09;57.14;100153.19;5020475;28;45429;-71
2022/12/13 07:42:52;;;;;;;;;33.75;28.50;;;;;0.01;57.15;100183.09;5019735;28;53805;-71
2022/12/13 07:45:17;;;;;;;;;35.75;33.50;;;;;-0.23;57.02;100132.25;5020029;28;45456;-69
2022/12/13 07:47:43;;;;;;;;;39.75;39.00;;;;;-0.23;56.83;100135.72;5020128;28;45343;-72
2022/12/13 07:50:09;;;;;;;;;38.25;35.25;;;;;-0.56;56.68;100088.94;5002400;28;45326;-71
2022/12/13 07:52:34;;;;;;;;;38.25;35.50;;;;;-0.17;57.76;100163.25;5019966;28;46496;-70
2022/12/13 07:54:59;;;;;;;;;32.75;29.75;;;;;-0.37;57.17;100133.91;5020087;28;45261;-71
2022/12/13 07:57:24;;;;;;;;;39.25;37.75;;;;;-0.96;56.59;100012.94;5019925;28;45416;-70
2022/12/13 07:59:50;;;;;;;;;35.75;30.00;;;;;-0.63;57.12;100066.69;5002220;28;45476;-69
2022/12/13 08:02:15;;;;;;;;;46.75;35.00;;;;;-0.32;57.06;100115.38;5001548;28;48715;-69
2022/12/13 08:04:41;;;;;;;;;41.25;31.25;;;;;0.24;57.00;100197.38;5020248;28;45463;-70
2022/12/13 08:07:08;;;;;;;;;42.75;34.00;;;;;0.37;56.35;100218.38;5018796;28;45468;-69
2022/12/13 08:09:33;;;;;;;;;45.25;34.25;;;;;0.33;56.79;100222.13;5002868;28;45312;-74
2022/12/13 08:12:00;;;;;;;;;41.25;36.00;;;;;0.35;56.09;100222.88;5019639;28;46039;-69
2022/12/13 08:14:25;;;;;;;;;47.25;39.00;;;;;0.30;56.56;100223.16;5019653;28;45412;-70
2022/12/13 08:16:51;;;;;;;;;37.50;28.00;;;;;0.25;56.46;100220.81;5019892;28;45217;-71
2022/12/13 08:19:16;;;;;;;;;46.50;37.00;;;;;0.02;56.44;100197.81;5019808;28;45523;-68
2022/12/13 08:21:41;;;;;;;;;64.25;47.25;;;;;0.34;56.07;100219.41;5019596;28;45713;-70
2022/12/13 08:24:07;;;;;;;;;43.00;38.25;;;;;-0.16;56.17;100138.81;5019613;28;45309;-71
2022/12/13 08:26:33;;;;;;;;;53.75;40.00;;;;;-0.07;56.10;100162.63;5019353;28;45614;-69
2022/12/13 08:28:58;;;;;;;;;40.25;37.75;;;;;0.01;56.76;100164.78;5019390;28;45548;-70
2022/12/13 08:31:24;;;;;;;;;39.75;29.75;;;;;0.46;56.43;100225.69;5017999;28;47662;-70
2022/12/13 08:33:50;;;;;;;;;53.00;43.00;;;;;-0.64;55.74;100031.91;5017544;28;45847;-70
2022/12/13 08:36:17;;;;;;;;;42.25;35.00;;;;;0.52;56.01;100209.63;5001404;28;45423;-69
2022/12/13 08:38:45;;;;;;;;;30.75;29.00;;;;;-0.55;55.60;99994.00;5002209;28;45530;-71
2022/12/13 08:41:12;;;;;;;;;44.00;38.50;;;;;-0.26;54.49;100004.44;5019711;28;46784;-69
2022/12/13 08:43:37;;;;;;;;;36.25;32.25;;;;;1.18;53.94;100229.94;5019544;28;45342;-71
2022/12/13 08:46:03;;;;;;;;;34.25;29.50;;;;;1.03;54.04;100213.44;5019588;28;45490;-71
2022/12/13 08:48:29;;;;;;;;;55.75;41.75;;;;;0.89;53.76;100175.03;5021639;28;45225;-70
2022/12/13 08:50:59;;;;;;;;;50.25;39.50;;;;;1.51;53.07;100255.75;5018845;28;46157;-70
2022/12/13 08:53:24;;;;;;;;;52.50;40.25;;;;;1.96;52.21;100236.19;5019286;28;45514;-71
2022/12/13 08:55:50;;;;;;;;;42.75;39.00;;;;;2.26;50.79;100248.22;5018953;28;45786;-69
2022/12/13 08:58:15;;;;;;;;;36.75;35.50;;;;;2.86;50.01;100239.69;5019164;28;47403;-73
2022/12/13 09:00:41;;;;;;;;;46.25;38.25;;;;;2.70;47.85;100051.78;5019286;28;50317;-71
2022/12/13 09:03:07;;;;;;;;;40.50;33.50;;;;;3.31;48.30;100207.53;5017444;28;46139;-71
2022/12/13 09:05:32;;;;;;;;;39.25;29.25;;;;;2.57;48.78;100140.19;5018907;28;45500;-71
2022/12/13 09:07:58;;;;;;;;;46.25;38.00;;;;;2.77;49.44;100196.53;5019298;28;45286;-70
2022/12/13 09:10:24;;;;;;;;;43.25;35.25;;;;;2.70;49.73;100206.63;5017290;28;46882;-72
2022/12/13 09:12:49;;;;;;;;;50.00;38.75;;;;;2.43;49.86;100195.44;5018773;28;45400;-71
2022/12/13 09:15:14;;;;;;;;;38.00;34.00;;;;;2.39;50.24;100200.03;5018378;28;45376;-71
2022/12/13 09:17:40;;;;;;;;;44.50;38.25;;;;;2.30;50.50;100191.97;5018635;28;45452;-70
2022/12/13 09:20:08;;;;;;;;;50.00;41.25;;;;;2.01;50.74;100202.66;5019503;28;46421;-72
2022/12/13 09:22:34;;;;;;;;;53.00;43.75;;;;;1.91;51.27;100196.34;5019188;28;45553;-69
2022/12/13 09:25:00;;;;;;;;;39.50;31.00;;;;;1.48;52.14;100148.56;5018500;28;45391;-71
2022/12/13 09:27:26;;;;;;;;;43.00;36.00;;;;;0.53;52.23;100025.63;5018798;28;45614;-71
2022/12/13 09:29:52;;;;;;;;;47.00;38.75;;;;;0.37;52.98;100046.66;5018678;28;46704;-72
2022/12/13 09:32:17;;;;;;;;;45.00;41.50;;;;;1.30;52.79;100202.13;5018198;28;45279;-70
2022/12/13 09:34:43;;;;;;;;;46.75;39.00;;;;;1.19;52.72;100201.03;5018376;28;45241;-70
2022/12/13 09:37:10;;;;;;;;;53.00;42.00;;;;;1.29;53.20;100196.06;5018586;28;45242;-71
2022/12/13 09:39:36;;;;;;;;;54.75;41.75;;;;;1.35;52.85;100203.50;5018546;28;46044;-70
2022/12/13 09:42:01;;;;;;;;;50.75;41.50;;;;;0.86;52.87;100115.03;5016796;28;46233;-69
2022/12/13 09:44:34;;;;;;;;;52.25;42.25;;;;;1.13;52.62;100156.09;5018787;28;45382;-69
2022/12/13 09:47:11;;;;;;;;;49.25;38.25;;;;;1.51;52.83;100198.13;5018598;28;45449;-69
2022/12/13 09:49:43;;;;;;;;;54.00;41.00;;;;;1.50;52.80;100202.53;5018586;28;46435;-71
2022/12/13 09:52:13;;;;;;;;;44.50;38.75;;;;;0.34;52.25;100030.34;5017566;28;45525;-70
2022/12/13 09:54:40;;;;;;;;;45.00;39.00;;;;;1.49;52.35;100195.59;5020146;28;45456;-69
2022/12/13 09:57:16;;;;;;;;;41.75;35.75;;;;;0.51;52.67;100033.56;5000560;28;45560;-68
2022/12/13 09:59:42;;;;;;;;;42.25;37.75;;;;;1.06;52.31;100128.63;4999766;28;48393;-70
2022/12/13 10:02:36;;;;;;;;;38.50;33.75;;;;;1.07;52.44;100135.53;5016732;28;45294;-70
2022/12/13 10:05:15;;;;;;;;;53.00;45.50;;;;;1.49;51.98;100193.00;5000551;28;45242;-72
2022/12/13 10:07:41;;;;;;;;;45.25;38.25;;;;;1.44;52.46;100181.97;5018135;28;45382;-69
2022/12/13 10:10:13;;;;;;;;;42.50;36.50;;;;;1.59;52.07;100184.50;5018168;28;45704;-70
2022/12/13 10:12:42;;;;;;;;;45.50;39.25;;;;;1.68;52.16;100194.41;5018485;28;45321;-71
2022/12/13 10:15:11;;;;;;;;;50.00;41.25;;;;;1.79;52.04;100207.63;5018065;28;45361;-70
2022/12/13 10:17:39;;;;;;;;;46.25;39.25;;;;;1.60;51.64;100183.56;5018339;28;45518;-71
2022/12/13 10:20:06;;;;;;;;;36.50;32.25;;;;;1.69;51.75;100196.09;5018672;28;46608;-73
2022/12/13 10:22:32;;;;;;;;;48.25;38.75;;;;;1.47;51.91;100189.63;5018527;28;45287;-71
2022/12/13 10:25:02;;;;;;;;;48.50;38.25;;;;;1.30;51.85;100161.06;5000286;28;45499;-71
2022/12/13 10:27:48;;;;;;;;;45.75;41.50;;;;;1.47;52.28;100191.41;5017698;28;45488;-70
2022/12/13 10:30:25;;;;;;;;;39.50;32.75;;;;;1.42;52.31;100190.88;4998936;28;46043;-70
2022/12/13 10:33:01;;;;;;;;;50.75;41.00;;;;;1.41;51.67;100182.19;5019136;28;45371;-70
2022/12/13 10:35:28;;;;;;;;;45.25;39.00;;;;;1.33;52.55;100192.28;5018066;28;45431;-72
2022/12/13 10:37:55;;;;;;;;;31.50;24.00;;;;;1.01;52.41;100141.19;5016663;28;45652;-71
2022/12/13 10:40:31;;;;;;;;;39.25;36.25;;;;;1.38;51.90;100197.22;5018714;28;45402;-71
2022/12/13 10:43:24;;;;;;;;;40.25;34.00;;;;;0.80;51.78;100091.88;5017328;28;45190;-72
2022/12/13 10:45:53;;;;;;;;;42.50;37.75;;;;;1.44;52.13;100186.38;5016885;28;45495;-70
2022/12/13 10:48:23;;;;;;;;;47.50;40.25;;;;;1.22;52.13;100142.41;5017581;28;45575;-72
2022/12/13 10:51:04;;;;;;;;;47.75;38.00;;;;;1.32;51.93;100163.59;5016998;28;46050;-70
2022/12/13 10:53:39;;;;;;;;;42.25;37.25;;;;;1.51;51.90;100179.78;5017378;28;45731;-70
2022/12/13 10:56:06;;;;;;;;;36.75;33.75;;;;;1.52;51.52;100177.06;5017218;28;45544;-70
2022/12/13 10:58:38;;;;;;;;;53.75;42.25;;;;;0.32;51.73;99957.22;5017323;28;45333;-71
2022/12/13 11:01:17;;;;;;;;;46.00;36.75;;;;;1.56;51.88;100158.53;5016911;28;45885;-70
2022/12/13 11:03:56;;;;;;;;;42.50;38.75;;;;;0.95;51.87;100049.94;5016916;28;45387;-72
2022/12/13 11:06:21;;;;;;;;;43.50;37.75;;;;;1.63;51.66;100154.56;5017790;28;45445;-71
2022/12/13 11:08:47;;;;;;;;;52.25;41.25;;;;;1.57;51.68;100152.34;5017690;28;45408;-71
2022/12/13 11:11:17;;;;;;;;;42.00;38.75;;;;;0.32;51.72;99943.31;5017242;28;47036;-70
2022/12/13 11:13:52;;;;;;;;;47.50;33.75;;;;;1.65;51.24;100136.97;5017380;28;45459;-70
2022/12/13 11:16:26;;;;;;;;;46.00;39.00;;;;;0.60;50.95;99956.28;5017158;28;45427;-71
2022/12/13 11:19:06;;;;;;;;;37.50;33.75;;;;;0.97;51.33;100021.91;5015903;28;45615;-70
2022/12/13 11:21:35;;;;;;;;;42.50;37.00;;;;;1.33;50.25;100092.78;5016485;28;46025;-69